Yosemite Valley, CA

3:23 PM PDT on October 23, 2014 (GMT -0700)
Loggers Retreat | Change Station
CLOSE
Current Station
Personal Weather Station
Location: Fish Camp, CA
Elevation: 4960 ft
Nearby Weather Stations

Elev 4960 ft 37.45 °N, 119.65 °W | Updated 22 minutes ago

Clear
Clear
70.1 °F
Feels Like 76 °F
N
0.0
Wind Variable Wind from ESE
Gusts 3.0 mph

Today
High -- | Low -- °F
--% Chance of Precip.
Yesterday
High -- | Low -- °F
Precip. -- in
7:14 AM 6:10 PM
New Moon, 0% visible
Pressure 30.03 in
Visibility 10.0 miles
Clouds Clear
Heat Index 76 °F
Dew Point 39 °F
Humidity 32%
Rainfall 0.00 in
Snow Depth Not available.
UV 3.7 out of 12
Pollen 2.60 out of 12
Air Quality Not available.
Flu Activity Sporadic
METAR KO22 232155Z AUTO 19004KT 10SM CLR 23/04 A3003 RMK AO1

More Conditions Fewer Conditions

Pressure 30.03 in
Visibility 10.0 miles
Clouds Clear
Heat Index 76 °F
Dew Point 39 °F
Humidity 32%
Rainfall 0.00 in
Snow Depth Not available.
UV 3.7 out of 12
Pollen 2.60 out of 12
Air Quality Not available.
Flu Activity Sporadic
METAR KO22 232155Z AUTO 19004KT 10SM CLR 23/04 A3003 RMK AO1

More Conditions Fewer Conditions

10-Day Weather Forecast

Almanac

Astronomy

Oct. 23, 2014 Rise Set
Actual Time 7:14 AM PDT 6:10 PM PDT
Civil Twilight 6:47 AM PDT 6:36 PM PDT
Nautical Twilight 6:17 AM PDT 7:07 PM PDT
Astronomical Twilight 5:46 AM PDT 7:37 PM PDT
Moon 6:59 AM PDT 6:14 PM PDT
Length of Visible Light 11h 49m
Length of Day
10h 55m
Tomorrow will be 2m 15s shorter.
New Moon, 0% of the Moon is Illuminated
Today
New Moon
Oct 30
First Quarter
Nov 6
Full
Nov 14
Last Quarter
Nov 22
New

Today's Extremes

State Highs State Lows

Community

WunderPhotos

Upload Photos

1,764,387 photos uploaded!

WunderBlogs® & News

Nearby

Snow Depth

Station Depth Elevation
Summit Meadow 0 in 9122 ft
Monitor Pass 0 in 8350 ft
Burnside Lake 0 in 8139 ft
Hagan's Meadow 0 in 8000 ft
Echo Peak 0 in 7800 ft

Earthquake Activity

City Distance Mag. Time & Date
Kettleman City, California 131 miles 2.5 9:08 AM PDT
2014-10-22
Mammoth Lakes, California 47 miles 3.0 11:10 PM PDT
2014-10-20
Minimum magnitude displayed is 2.5.

Coastal Water Temperatures

Place Temperature
No Stations Reporting

Nearby Weather Stations